createdAt,value
2023-03-03T00:03:24.041Z,48.70
2023-03-03T00:08:28.349Z,48.60
2023-03-03T00:13:34.034Z,48.30
2023-03-03T00:18:42.731Z,48.30
2023-03-03T00:23:46.758Z,48.40
2023-03-03T00:28:52.726Z,48.40
2023-03-03T00:34:01.981Z,48.20
2023-03-03T00:39:37.849Z,48.10
2023-03-03T00:44:58.254Z,48.00
2023-03-03T00:50:08.135Z,47.80
2023-03-03T00:55:12.762Z,48.00
2023-03-03T01:00:17.207Z,48.00
2023-03-03T01:05:22.061Z,48.50
2023-03-03T01:10:28.747Z,48.00
2023-03-03T01:15:32.779Z,48.50
2023-03-03T01:20:37.332Z,48.60
2023-03-03T01:25:42.482Z,48.80
2023-03-03T01:30:46.922Z,49.30
2023-03-03T01:35:50.776Z,49.50
2023-03-03T01:40:58.090Z,49.30
2023-03-03T01:46:03.256Z,49.30
2023-03-03T01:51:24.225Z,49.40
2023-03-03T01:56:28.903Z,49.50
2023-03-03T02:01:34.700Z,49.60
2023-03-03T02:06:44.967Z,49.70
2023-03-03T02:11:52.904Z,50.10
2023-03-03T02:16:57.005Z,49.80
2023-03-03T02:22:05.019Z,49.80
2023-03-03T02:27:09.361Z,49.80
2023-03-03T02:32:13.758Z,49.90
2023-03-03T02:37:18.594Z,50.00
2023-03-03T02:42:29.547Z,49.80
2023-03-03T02:47:33.599Z,50.20
2023-03-03T02:52:38.426Z,50.10
2023-03-03T02:57:43.285Z,50.10
2023-03-03T03:02:47.716Z,50.00
2023-03-03T03:07:52.365Z,49.60
2023-03-03T03:12:56.601Z,49.00
2023-03-03T03:18:01.145Z,48.90
2023-03-03T03:23:05.375Z,48.70
2023-03-03T03:28:09.464Z,48.70
2023-03-03T03:33:14.372Z,48.30
2023-03-03T03:38:18.769Z,48.00
2023-03-03T03:43:25.202Z,47.70
2023-03-03T03:48:29.882Z,47.80
2023-03-03T03:53:34.476Z,47.80
2023-03-03T03:58:41.093Z,47.50
2023-03-03T04:03:45.731Z,47.60
2023-03-03T04:08:52.306Z,47.60
2023-03-03T04:13:58.094Z,47.30
2023-03-03T04:19:04.080Z,47.60
2023-03-03T04:24:09.452Z,47.40
2023-03-03T04:29:14.695Z,47.20
2023-03-03T04:34:19.653Z,47.20
2023-03-03T04:39:24.508Z,47.10
2023-03-03T04:44:28.644Z,46.90
2023-03-03T04:49:32.793Z,46.90
2023-03-03T04:54:37.011Z,46.80
2023-03-03T04:59:41.249Z,47.00
2023-03-03T05:04:45.512Z,47.00
2023-03-03T05:09:49.419Z,47.00
2023-03-03T05:14:53.438Z,47.30
2023-03-03T05:19:57.791Z,47.30
2023-03-03T05:25:01.809Z,47.70
2023-03-03T05:30:07.013Z,48.10
2023-03-03T05:35:11.306Z,48.20
2023-03-03T05:40:15.428Z,48.10
2023-03-03T05:45:24.804Z,48.30
2023-03-03T05:50:28.643Z,48.50
2023-03-03T05:55:32.769Z,48.90
2023-03-03T06:00:37.613Z,48.60
2023-03-03T06:05:41.607Z,48.80
2023-03-03T06:10:45.790Z,49.00
2023-03-03T06:15:50.357Z,48.90
2023-03-03T06:20:55.509Z,49.10
2023-03-03T06:25:59.419Z,49.30
2023-03-03T06:31:05.422Z,49.50
2023-03-03T06:36:11.625Z,49.50
2023-03-03T06:41:15.829Z,50.40
2023-03-03T06:46:19.944Z,50.30
2023-03-03T06:51:33.840Z,50.80
2023-03-03T06:56:39.205Z,50.50
2023-03-03T07:01:45.295Z,50.70
2023-03-03T07:06:49.379Z,51.00
2023-03-03T07:11:57.724Z,51.00
2023-03-03T07:17:05.535Z,51.10
2023-03-03T07:22:16.997Z,51.10
2023-03-03T07:27:31.933Z,51.30
2023-03-03T07:32:39.342Z,50.70
2023-03-03T07:37:43.467Z,50.60
2023-03-03T07:42:47.641Z,51.30
2023-03-03T07:48:10.165Z,50.70
2023-03-03T07:53:43.485Z,49.60
2023-03-03T07:58:47.910Z,48.90
2023-03-03T08:03:52.898Z,48.80
2023-03-03T08:09:03.431Z,47.50
2023-03-03T08:14:16.895Z,47.20
2023-03-03T08:19:21.335Z,46.80
2023-03-03T08:24:25.350Z,46.40
2023-03-03T08:29:29.584Z,46.00
2023-03-03T08:34:33.641Z,45.80
2023-03-03T08:39:37.651Z,46.00
2023-03-03T08:44:42.191Z,45.90
2023-03-03T08:49:46.236Z,46.00
2023-03-03T08:54:50.572Z,45.30
2023-03-03T08:59:54.713Z,45.20
2023-03-03T09:04:58.654Z,45.40
2023-03-03T09:10:03.195Z,45.10
2023-03-03T09:15:21.633Z,46.30
2023-03-03T09:20:32.232Z,44.50
2023-03-03T09:25:37.991Z,44.40
2023-03-03T09:30:48.582Z,44.00
2023-03-03T09:36:02.629Z,44.30
2023-03-03T09:41:09.421Z,44.30
2023-03-03T09:46:42.781Z,44.30
2023-03-03T09:52:28.309Z,44.60
2023-03-03T09:58:11.489Z,44.10
2023-03-03T10:03:21.777Z,44.00
2023-03-03T10:08:36.800Z,43.80
2023-03-03T10:13:59.592Z,44.00
2023-03-03T10:19:35.030Z,44.30
2023-03-03T10:25:14.044Z,43.90
2023-03-03T10:30:41.168Z,44.90
2023-03-03T10:36:06.957Z,45.00
2023-03-03T10:41:54.839Z,45.20
2023-03-03T10:47:33.796Z,45.40
2023-03-03T10:53:10.551Z,45.30
2023-03-03T10:59:09.650Z,45.40
2023-03-03T11:04:46.136Z,45.30
2023-03-03T11:09:57.715Z,45.50
2023-03-03T11:15:29.078Z,45.40
2023-03-03T11:20:48.397Z,45.50
2023-03-03T11:26:37.132Z,45.50
2023-03-03T11:31:58.103Z,45.40
2023-03-03T11:37:10.183Z,45.40
2023-03-03T11:42:43.235Z,45.50
2023-03-03T11:48:22.378Z,45.50
2023-03-03T11:53:55.373Z,45.50
2023-03-03T11:59:30.718Z,45.50
2023-03-03T12:04:40.494Z,45.50
2023-03-03T12:09:52.803Z,45.40
2023-03-03T12:15:18.624Z,45.10
2023-03-03T12:20:31.781Z,44.50
2023-03-03T12:25:46.953Z,44.40
2023-03-03T12:31:00.188Z,44.20
2023-03-03T12:36:04.268Z,44.10
2023-03-03T12:41:33.353Z,44.00
2023-03-03T12:46:44.999Z,43.90
2023-03-03T12:51:59.326Z,43.50
2023-03-03T12:57:15.628Z,43.40
2023-03-03T13:02:31.958Z,43.90
2023-03-03T13:07:46.434Z,43.60
2023-03-03T13:12:54.847Z,43.60
2023-03-03T13:18:01.550Z,43.60
2023-03-03T13:23:13.968Z,43.50
2023-03-03T13:28:40.444Z,43.50
2023-03-03T13:33:58.262Z,43.40
2023-03-03T13:39:27.902Z,43.70
2023-03-03T13:44:46.130Z,43.30
2023-03-03T13:49:59.062Z,43.10
2023-03-03T13:55:22.965Z,43.30
2023-03-03T14:00:30.511Z,43.60
2023-03-03T14:05:44.698Z,43.80
2023-03-03T14:11:15.369Z,43.70
2023-03-03T14:16:40.917Z,44.10
2023-03-03T14:22:04.397Z,44.50
2023-03-03T14:27:25.086Z,45.10
2023-03-03T14:32:44.443Z,45.10
2023-03-03T14:37:50.967Z,45.70
2023-03-03T14:42:57.994Z,45.30
2023-03-03T14:48:10.738Z,45.20
2023-03-03T14:53:31.985Z,44.70
2023-03-03T14:58:44.481Z,44.80
2023-03-03T15:04:24.998Z,44.60
2023-03-03T15:09:43.289Z,44.50
2023-03-03T15:14:52.155Z,44.60
2023-03-03T15:20:16.850Z,44.70
2023-03-03T15:25:59.889Z,45.20
2023-03-03T15:31:21.368Z,45.80
2023-03-03T15:36:41.690Z,45.80
2023-03-03T15:42:25.229Z,46.00
2023-03-03T15:47:55.341Z,46.30
2023-03-03T15:53:02.420Z,46.60
2023-03-03T15:58:21.810Z,46.80
2023-03-03T16:03:36.590Z,46.90
2023-03-03T16:09:24.843Z,48.10
2023-03-03T16:14:48.516Z,48.80
2023-03-03T16:20:18.249Z,49.70
2023-03-03T16:25:39.732Z,49.60
2023-03-03T16:30:49.528Z,50.00
2023-03-03T16:36:03.522Z,50.40
2023-03-03T16:41:14.833Z,50.50
2023-03-03T16:46:36.203Z,50.10
2023-03-03T16:52:08.273Z,50.70
2023-03-03T16:57:21.752Z,50.60
2023-03-03T17:02:54.512Z,51.10
2023-03-03T17:08:31.728Z,51.40
2023-03-03T17:14:19.223Z,51.60
2023-03-03T17:19:53.252Z,51.50
2023-03-03T17:25:26.648Z,52.20
2023-03-03T17:30:54.728Z,52.60
2023-03-03T17:36:42.796Z,51.80
2023-03-03T17:42:01.841Z,52.10
2023-03-03T17:47:10.684Z,51.70
2023-03-03T17:52:36.624Z,51.40
2023-03-03T17:58:10.470Z,52.40
2023-03-03T18:03:40.991Z,52.50
2023-03-03T18:09:14.572Z,54.50
2023-03-03T18:14:50.553Z,53.70
2023-03-03T18:20:29.551Z,55.60
2023-03-03T18:25:58.889Z,56.20
2023-03-03T18:31:05.894Z,55.00
2023-03-03T18:36:30.383Z,54.80
2023-03-03T18:42:06.886Z,54.80
2023-03-03T18:47:13.206Z,54.60
2023-03-03T18:52:34.133Z,53.60
2023-03-03T18:57:42.276Z,54.60
2023-03-03T19:03:00.088Z,54.70
2023-03-03T19:08:24.829Z,54.10
2023-03-03T19:14:22.066Z,54.40
2023-03-03T19:19:35.198Z,54.00
2023-03-03T19:24:42.623Z,53.80
2023-03-03T19:29:48.435Z,53.30
2023-03-03T19:35:34.946Z,53.50
2023-03-03T19:41:32.670Z,53.60
2023-03-03T19:46:38.933Z,53.30
2023-03-03T19:51:48.658Z,53.40
2023-03-03T19:57:00.006Z,53.20
2023-03-03T20:02:12.294Z,53.50
2023-03-03T20:08:06.194Z,54.10
2023-03-03T20:13:32.542Z,53.90
2023-03-03T20:19:04.493Z,54.80
2023-03-03T20:24:31.407Z,53.40
2023-03-03T20:29:38.780Z,53.80
2023-03-03T20:35:11.516Z,53.90
2023-03-03T20:40:34.660Z,54.00
2023-03-03T20:46:17.859Z,54.50
2023-03-03T20:52:01.381Z,54.10
2023-03-03T20:57:45.675Z,54.30
2023-03-03T21:02:57.349Z,54.30
2023-03-03T21:08:05.469Z,54.80
2023-03-03T21:13:44.411Z,54.40
2023-03-03T21:19:13.806Z,54.60
2023-03-03T21:24:22.734Z,55.00
2023-03-03T21:29:33.628Z,54.20
2023-03-03T21:34:40.305Z,53.70
2023-03-03T21:39:46.412Z,53.80
2023-03-03T21:44:52.498Z,54.30
2023-03-03T21:49:56.507Z,53.90
2023-03-03T21:55:00.952Z,55.30
2023-03-03T22:00:07.221Z,56.90
2023-03-03T22:05:11.900Z,56.90
2023-03-03T22:10:16.034Z,58.70
2023-03-03T22:15:20.262Z,58.50
2023-03-03T22:20:24.343Z,58.00
2023-03-03T22:25:28.434Z,57.50
2023-03-03T22:30:32.485Z,57.10
2023-03-03T22:35:36.840Z,56.40
2023-03-03T22:40:40.952Z,55.60
2023-03-03T22:45:45.195Z,54.70
2023-03-03T22:50:49.948Z,53.40
2023-03-03T22:55:54.585Z,53.30
2023-03-03T23:00:58.621Z,52.60
2023-03-03T23:06:02.748Z,52.60
2023-03-03T23:11:06.778Z,52.50
2023-03-03T23:16:10.859Z,52.30
2023-03-03T23:21:16.361Z,51.90
2023-03-03T23:26:20.507Z,51.60
2023-03-03T23:31:26.513Z,51.60
2023-03-03T23:36:30.410Z,51.60
2023-03-03T23:41:34.830Z,51.50
2023-03-03T23:46:40.402Z,51.10
2023-03-03T23:51:44.354Z,50.30
2023-03-03T23:56:48.401Z,49.90
